This is the latest recevied weather packets stored in our database for station/object CA3SQH-10. If no packets are shown the sender has not sent any weather packets the latest 10 day(s).
| Time | Temp. | Humidity | Pressure | Rain* | Wind** | Luminosity | Snow |
|---|---|---|---|---|---|---|---|
| 1777664639 | 20.56° C | 58% | 942.2 hPa | - | - | - | - |
| 1777663739 | 20° C | 59% | 942.2 hPa | - | - | - | - |
| 1777662838 | 18.33° C | 64% | 942.2 hPa | - | - | - | - |
| 1777661938 | 18.33° C | 64% | 942.2 hPa | - | - | - | - |
| 1777661038 | 17.78° C | 66% | 942 hPa | - | - | - | - |
| 1777660138 | 17.78° C | 66% | 941.9 hPa | - | - | - | - |
| 1777659238 | 17.78° C | 65% | 942 hPa | - | - | - | - |
| 1777658337 | 18.33° C | 63% | 941.9 hPa | - | - | - | - |
| 1777657442 | 18.33° C | 63% | 941.8 hPa | - | - | - | - |
| 1777656542 | 18.33° C | 63% | 941.7 hPa | - | - | - | - |
| 1777655642 | 17.78° C | 65% | 941.5 hPa | - | - | - | - |
| 1777654741 | 17.78° C | 65% | 941.8 hPa | - | - | - | - |
| 1777653841 | 17.78° C | 66% | 942.2 hPa | - | - | - | - |
| 1777652941 | 17.22° C | 67% | 942.4 hPa | - | - | - | - |
| 1777652041 | 16.67° C | 70% | 942.6 hPa | - | - | - | - |
| 1777651141 | 16.11° C | 70% | 942.7 hPa | - | - | - | - |
| 1777650240 | 16.11° C | 68% | 942.6 hPa | - | - | - | - |
| 1777649340 | 16.11° C | 69% | 942.6 hPa | - | - | - | - |
| 1777648440 | 16.11° C | 69% | 942.5 hPa | - | - | - | - |
| 1777647540 | 16.11° C | 70% | 942.3 hPa | - | - | - | - |
| 1777646640 | 16.11° C | 71% | 942.2 hPa | - | - | - | - |
| 1777645739 | 15.56° C | 71% | 942.3 hPa | - | - | - | - |
| 1777644839 | 15° C | 73% | 942.4 hPa | - | - | - | - |
| 1777643939 | 14.44° C | 75% | 942.3 hPa | - | - | - | - |
| 1777643039 | 14.44° C | 75% | 942.2 hPa | - | - | - | - |
* Rain since midnight (hover to see other rain measurements)
** Current wind speed in m/s (hover to see current wind gust speed)